Time;durP1;ratioP1;P1;durP2;ratioP2;P2;SDS_P1;SDS_P2;PMS_P1;PMS_P2;Temp;Humidity;BMP_temperature;BMP_pressure;BME280_temperature;BME280_humidity;BME280_pressure;Samples;Min_cycle;Max_cycle;Signal;HPM_P1;HPM_P2
2023/01/16 00:00:52;;;;;;;3.13;2.38;;;;;;;;;;5035872;28;20042;-84
2023/01/16 00:03:18;;;;;;;5.47;2.60;;;;;;;;;;5022955;28;20072;-86
2023/01/16 00:05:44;;;;;;;2.75;2.53;;;;;;;;;;5026677;28;20064;-84
2023/01/16 00:08:10;;;;;;;4.22;2.70;;;;;;;;;;5039405;28;20041;-86
2023/01/16 00:10:36;;;;;;;4.18;3.15;;;;;;;;;;5043408;28;20063;-85
2023/01/16 00:13:03;;;;;;;4.70;3.40;;;;;;;;;;5031821;28;20485;-85
2023/01/16 00:15:29;;;;;;;6.38;3.90;;;;;;;;;;5027611;28;20389;-85
2023/01/16 00:17:55;;;;;;;5.97;3.25;;;;;;;;;;5026035;28;20542;-84
2023/01/16 00:20:21;;;;;;;5.28;3.90;;;;;;;;;;5039763;28;20120;-84
2023/01/16 00:22:47;;;;;;;4.20;3.55;;;;;;;;;;5054568;28;20511;-84
2023/01/16 00:25:13;;;;;;;5.78;4.35;;;;;;;;;;5023152;28;20481;-85
2023/01/16 00:27:39;;;;;;;6.20;4.47;;;;;;;;;;5029250;28;20049;-84
2023/01/16 00:30:06;;;;;;;7.22;5.07;;;;;;;;;;5018169;28;20060;-85
2023/01/16 00:32:32;;;;;;;6.47;5.45;;;;;;;;;;5031202;28;20037;-85
2023/01/16 00:34:58;;;;;;;9.82;6.90;;;;;;;;;;5026491;28;20152;-84
2023/01/16 00:37:24;;;;;;;10.23;7.53;;;;;;;;;;5021135;28;20120;-84
2023/01/16 00:39:53;;;;;;;10.55;7.38;;;;;;;;;;5020065;28;20045;-83
2023/01/16 00:42:19;;;;;;;12.13;7.93;;;;;;;;;;5021368;28;20083;-84
2023/01/16 00:44:45;;;;;;;8.95;7.85;;;;;;;;;;5019437;28;20511;-83
2023/01/16 00:47:11;;;;;;;10.45;8.57;;;;;;;;;;5020724;28;20052;-83
2023/01/16 00:49:37;;;;;;;13.10;8.73;;;;;;;;;;5051752;28;20037;-83
2023/01/16 00:52:04;;;;;;;9.82;7.68;;;;;;;;;;5015933;28;20054;-83
2023/01/16 00:54:30;;;;;;;10.85;8.13;;;;;;;;;;5022346;28;20397;-83
2023/01/16 00:56:58;;;;;;;11.38;9.20;;;;;;;;;;5024027;28;20042;-83
2023/01/16 00:59:24;;;;;;;11.60;8.00;;;;;;;;;;5016737;28;20386;-83
2023/01/16 01:01:53;;;;;;;11.32;8.75;;;;;;;;;;5020250;28;20041;-82
2023/01/16 01:04:19;;;;;;;10.82;8.70;;;;;;;;;;5024325;28;20041;-84
2023/01/16 01:06:45;;;;;;;10.85;8.63;;;;;;;;;;5031332;28;20046;-84
2023/01/16 01:09:11;;;;;;;11.57;8.10;;;;;;;;;;5030459;28;20065;-84
2023/01/16 01:11:37;;;;;;;11.70;8.07;;;;;;;;;;5022406;28;20045;-83
2023/01/16 01:14:03;;;;;;;10.80;7.70;;;;;;;;;;5021704;28;20046;-83
2023/01/16 01:16:30;;;;;;;9.85;7.00;;;;;;;;;;5026970;28;20099;-83
2023/01/16 01:18:56;;;;;;;8.77;5.75;;;;;;;;;;5029458;28;20401;-83
2023/01/16 01:21:21;;;;;;;10.80;6.13;;;;;;;;;;5016247;28;20058;-83
2023/01/16 01:23:47;;;;;;;9.05;6.28;;;;;;;;;;5027685;28;20051;-83
2023/01/16 01:26:16;;;;;;;10.07;6.63;;;;;;;;;;5026807;28;20401;-84
2023/01/16 01:28:42;;;;;;;9.43;7.40;;;;;;;;;;5028898;28;20073;-83
2023/01/16 01:31:10;;;;;;;12.10;7.32;;;;;;;;;;5007034;28;20368;-84
2023/01/16 01:33:37;;;;;;;12.40;8.00;;;;;;;;;;5022236;28;20042;-83
2023/01/16 01:36:03;;;;;;;9.75;7.63;;;;;;;;;;5055548;28;20044;-83
2023/01/16 01:38:30;;;;;;;13.93;9.02;;;;;;;;;;5023155;28;20053;-83
2023/01/16 01:40:56;;;;;;;13.25;8.80;;;;;;;;;;5020718;28;20045;-83
2023/01/16 01:43:22;;;;;;;12.98;9.32;;;;;;;;;;5027651;28;20042;-83
2023/01/16 01:45:53;;;;;;;11.10;8.30;;;;;;;;;;5024737;28;20045;-83
2023/01/16 01:48:23;;;;;;;10.85;8.63;;;;;;;;;;5019809;28;20081;-82
2023/01/16 01:50:58;;;;;;;13.18;8.35;;;;;;;;;;5024344;28;20038;-83
2023/01/16 01:53:44;;;;;;;13.07;8.13;;;;;;;;;;5023993;28;20068;-83
2023/01/16 01:56:17;;;;;;;10.65;8.43;;;;;;;;;;5023459;28;20482;-84
2023/01/16 01:58:45;;;;;;;10.05;8.10;;;;;;;;;;5028375;28;20045;-83
2023/01/16 02:01:11;;;;;;;11.68;9.18;;;;;;;;;;5021734;28;20064;-83
2023/01/16 02:03:42;;;;;;;10.50;9.05;;;;;;;;;;5023452;28;20041;-82
2023/01/16 02:06:13;;;;;;;12.57;9.63;;;;;;;;;;5025278;28;20107;-83
2023/01/16 02:08:44;;;;;;;14.52;10.13;;;;;;;;;;5026721;28;20124;-83
2023/01/16 02:11:25;;;;;;;14.05;11.00;;;;;;;;;;5032392;28;20386;-83
2023/01/16 02:13:52;;;;;;;13.60;10.27;;;;;;;;;;5033008;28;20077;-83
2023/01/16 02:19:15;;;;;;;14.15;10.38;;;;;;;;;;5044241;28;20053;-82
2023/01/16 02:21:48;;;;;;;13.70;9.95;;;;;;;;;;5023791;28;20094;-83
2023/01/16 02:24:23;;;;;;;15.98;11.40;;;;;;;;;;5034072;28;20610;-83
2023/01/16 02:26:49;;;;;;;15.73;10.82;;;;;;;;;;5032538;28;20129;-83
2023/01/16 02:29:18;;;;;;;15.15;11.27;;;;;;;;;;5028923;28;20117;-83
2023/01/16 02:31:50;;;;;;;14.88;10.27;;;;;;;;;;5024152;28;20045;-83
2023/01/16 02:34:22;;;;;;;17.23;11.40;;;;;;;;;;5014221;28;20057;-83
2023/01/16 02:37:07;;;;;;;13.27;10.45;;;;;;;;;;5025606;28;20103;-83
2023/01/16 02:39:41;;;;;;;15.82;11.07;;;;;;;;;;5022650;28;20068;-83
2023/01/16 02:42:10;;;;;;;15.23;10.48;;;;;;;;;;5024183;28;20132;-83
2023/01/16 02:44:40;;;;;;;19.05;12.00;;;;;;;;;;5022695;28;20045;-82
2023/01/16 02:47:06;;;;;;;16.13;11.70;;;;;;;;;;5023656;28;20052;-82
2023/01/16 02:49:40;;;;;;;16.27;12.23;;;;;;;;;;5023868;28;20037;-82
2023/01/16 02:52:06;;;;;;;15.55;11.70;;;;;;;;;;5020984;28;20057;-83
2023/01/16 02:54:35;;;;;;;18.58;11.73;;;;;;;;;;5024902;28;20049;-83
2023/01/16 02:57:27;;;;;;;17.17;11.40;;;;;;;;;;5035117;28;20385;-83
2023/01/16 02:59:53;;;;;;;14.68;11.68;;;;;;;;;;5022352;28;20105;-82
2023/01/16 03:02:19;;;;;;;13.55;10.90;;;;;;;;;;5022623;28;20491;-83
2023/01/16 03:04:47;;;;;;;15.63;11.98;;;;;;;;;;5016910;28;20048;-83
2023/01/16 03:07:13;;;;;;;14.60;11.70;;;;;;;;;;5023556;28;20034;-83
2023/01/16 03:09:48;;;;;;;15.88;12.23;;;;;;;;;;5037778;28;20527;-82
2023/01/16 03:12:30;;;;;;;17.08;12.20;;;;;;;;;;5032634;28;20077;-83
2023/01/16 03:15:05;;;;;;;16.70;12.43;;;;;;;;;;5026670;28;20497;-82
2023/01/16 03:17:50;;;;;;;14.98;12.13;;;;;;;;;;5032085;28;20064;-82
2023/01/16 03:20:16;;;;;;;18.63;12.98;;;;;;;;;;5020923;28;20132;-83
2023/01/16 03:22:48;;;;;;;17.52;13.57;;;;;;;;;;5032717;28;20060;-82
2023/01/16 03:25:36;;;;;;;18.05;12.43;;;;;;;;;;5061212;28;21087;-82
2023/01/16 03:28:05;;;;;;;19.48;13.05;;;;;;;;;;5031859;28;20051;-82
2023/01/16 03:30:37;;;;;;;18.00;13.10;;;;;;;;;;5031420;28;20041;-82
2023/01/16 03:33:05;;;;;;;20.42;14.40;;;;;;;;;;5027226;28;20037;-82
2023/01/16 03:35:34;;;;;;;17.38;13.68;;;;;;;;;;5027602;28;20045;-82
2023/01/16 03:38:06;;;;;;;18.23;13.55;;;;;;;;;;5024753;28;20054;-82
2023/01/16 03:40:35;;;;;;;17.90;13.35;;;;;;;;;;5018936;28;20558;-83
2023/01/16 03:43:02;;;;;;;20.88;13.70;;;;;;;;;;5054418;28;20061;-82
2023/01/16 03:45:32;;;;;;;19.05;13.30;;;;;;;;;;5024913;28;20480;-82
2023/01/16 03:48:18;;;;;;;20.55;12.35;;;;;;;;;;5046299;28;20513;-82
2023/01/16 03:50:47;;;;;;;19.40;11.63;;;;;;;;;;5017750;28;20053;-82
2023/01/16 03:53:15;;;;;;;18.70;11.35;;;;;;;;;;5018145;28;20045;-83
2023/01/16 03:55:44;;;;;;;14.73;10.52;;;;;;;;;;5018565;28;20481;-82
2023/01/16 03:58:18;;;;;;;18.98;12.45;;;;;;;;;;5017388;28;20410;-82
2023/01/16 04:00:48;;;;;;;17.15;11.23;;;;;;;;;;5019851;28;20473;-82
2023/01/16 04:03:22;;;;;;;17.83;12.02;;;;;;;;;;5016993;28;20049;-82
2023/01/16 04:05:53;;;;;;;19.15;11.60;;;;;;;;;;5019940;28;20088;-82
2023/01/16 04:08:22;;;;;;;18.27;13.95;;;;;;;;;;5021185;28;20152;-82
2023/01/16 04:10:50;;;;;;;18.20;13.48;;;;;;;;;;5020383;28;20049;-82
2023/01/16 04:13:19;;;;;;;19.52;13.65;;;;;;;;;;5025517;28;20045;-82
2023/01/16 04:15:46;;;;;;;17.25;13.52;;;;;;;;;;5031546;28;20120;-82
2023/01/16 04:18:12;;;;;;;17.85;13.93;;;;;;;;;;5028519;28;20127;-82
2023/01/16 04:20:40;;;;;;;19.88;13.90;;;;;;;;;;5029656;28;20091;-82
2023/01/16 04:23:06;;;;;;;18.05;13.07;;;;;;;;;;5027677;28;20053;-82
2023/01/16 04:25:32;;;;;;;16.33;12.40;;;;;;;;;;5028569;28;20124;-82
2023/01/16 04:27:58;;;;;;;18.73;12.23;;;;;;;;;;5031304;28;20049;-82
2023/01/16 04:30:24;;;;;;;17.63;12.10;;;;;;;;;;5025779;28;20535;-82
2023/01/16 04:32:50;;;;;;;21.80;12.77;;;;;;;;;;5029313;28;20510;-82
2023/01/16 04:35:16;;;;;;;17.02;11.57;;;;;;;;;;5028727;28;20075;-82
2023/01/16 04:37:42;;;;;;;16.98;11.43;;;;;;;;;;5029162;28;20092;-82
2023/01/16 04:40:08;;;;;;;20.00;11.88;;;;;;;;;;5029305;28;20045;-82
2023/01/16 04:42:35;;;;;;;19.42;12.70;;;;;;;;;;5015377;28;21118;-82
2023/01/16 04:45:01;;;;;;;17.42;12.18;;;;;;;;;;5017771;28;20060;-82
2023/01/16 04:47:27;;;;;;;22.52;13.90;;;;;;;;;;5022825;28;20073;-82
2023/01/16 04:49:53;;;;;;;19.98;13.18;;;;;;;;;;5004342;28;20127;-81
2023/01/16 04:52:19;;;;;;;20.27;13.32;;;;;;;;;;5019713;28;20144;-82
2023/01/16 04:54:45;;;;;;;18.98;13.57;;;;;;;;;;5019058;28;20055;-83
2023/01/16 04:57:11;;;;;;;21.33;14.48;;;;;;;;;;5053173;28;20154;-82
2023/01/16 04:59:37;;;;;;;20.42;13.00;;;;;;;;;;5016887;28;20075;-82
2023/01/16 05:02:03;;;;;;;19.63;14.05;;;;;;;;;;5020776;28;20131;-81
2023/01/16 05:04:29;;;;;;;23.48;14.32;;;;;;;;;;5019483;28;20049;-82
2023/01/16 05:06:55;;;;;;;20.90;14.38;;;;;;;;;;5019889;28;20096;-82
2023/01/16 05:09:21;;;;;;;20.58;14.05;;;;;;;;;;5019489;28;20456;-82
2023/01/16 05:11:47;;;;;;;18.33;13.10;;;;;;;;;;5021050;28;20041;-82
2023/01/16 05:14:13;;;;;;;22.15;14.32;;;;;;;;;;5020609;28;20095;-82
2023/01/16 05:16:43;;;;;;;21.98;14.70;;;;;;;;;;5017642;28;20041;-82
2023/01/16 05:19:09;;;;;;;21.10;14.73;;;;;;;;;;5020131;28;20073;-81
2023/01/16 05:21:35;;;;;;;17.55;13.77;;;;;;;;;;5020733;28;20054;-82
2023/01/16 05:24:02;;;;;;;21.38;14.70;;;;;;;;;;5018319;28;20140;-81
2023/01/16 05:26:28;;;;;;;20.73;15.18;;;;;;;;;;5019655;28;20127;-82
2023/01/16 05:28:54;;;;;;;20.88;14.73;;;;;;;;;;5021344;28;20046;-82
2023/01/16 05:31:20;;;;;;;23.98;16.25;;;;;;;;;;5054844;28;20065;-82
2023/01/16 05:33:46;;;;;;;24.65;15.77;;;;;;;;;;5021561;28;20045;-82
2023/01/16 05:36:12;;;;;;;21.17;15.40;;;;;;;;;;5020436;28;20038;-82
2023/01/16 05:38:38;;;;;;;26.38;15.93;;;;;;;;;;5019512;28;20107;-82
2023/01/16 05:41:04;;;;;;;21.23;14.95;;;;;;;;;;5017359;28;20459;-82
2023/01/16 05:43:31;;;;;;;22.27;14.82;;;;;;;;;;5002747;28;20056;-82
2023/01/16 05:46:00;;;;;;;25.33;15.60;;;;;;;;;;5029571;28;20370;-82
2023/01/16 05:48:28;;;;;;;20.08;14.65;;;;;;;;;;5051214;28;20045;-81
2023/01/16 05:50:54;;;;;;;21.13;15.13;;;;;;;;;;5026872;28;20558;-82
2023/01/16 05:53:20;;;;;;;25.55;15.70;;;;;;;;;;5032463;28;20045;-82
2023/01/16 05:55:47;;;;;;;25.20;15.15;;;;;;;;;;5022606;28;20053;-82
2023/01/16 05:58:14;;;;;;;25.52;14.85;;;;;;;;;;5016777;28;20421;-82
2023/01/16 06:00:40;;;;;;;26.35;15.30;;;;;;;;;;5019935;28;20041;-82
2023/01/16 06:03:06;;;;;;;24.55;15.25;;;;;;;;;;5033372;28;20042;-81
2023/01/16 06:05:32;;;;;;;21.73;13.57;;;;;;;;;;5018785;28;20064;-84
2023/01/16 06:07:58;;;;;;;26.05;13.93;;;;;;;;;;5020467;28;20557;-82
2023/01/16 06:10:25;;;;;;;21.38;14.05;;;;;;;;;;5033733;28;20081;-82
2023/01/16 06:12:51;;;;;;;23.27;14.43;;;;;;;;;;5034783;28;20049;-83
2023/01/16 06:15:17;;;;;;;23.67;14.10;;;;;;;;;;5036227;28;20477;-82
2023/01/16 06:17:44;;;;;;;24.77;14.30;;;;;;;;;;5021659;28;20065;-82
2023/01/16 06:20:10;;;;;;;25.63;14.98;;;;;;;;;;5035159;28;20146;-82
2023/01/16 06:22:36;;;;;;;19.77;13.60;;;;;;;;;;5025122;28;20123;-83
2023/01/16 06:25:02;;;;;;;21.05;14.68;;;;;;;;;;5035308;28;20512;-82
2023/01/16 06:27:29;;;;;;;25.05;14.70;;;;;;;;;;5033190;28;20056;-82
2023/01/16 06:29:55;;;;;;;25.60;15.73;;;;;;;;;;5031646;28;20046;-82
2023/01/16 06:32:21;;;;;;;21.77;14.32;;;;;;;;;;5044783;28;20052;-83
2023/01/16 06:34:47;;;;;;;22.98;16.38;;;;;;;;;;5046617;28;20149;-82
2023/01/16 06:37:13;;;;;;;28.90;18.05;;;;;;;;;;5033980;28;20136;-81
2023/01/16 06:39:39;;;;;;;21.73;15.75;;;;;;;;;;5025267;28;20041;-82
2023/01/16 06:42:05;;;;;;;20.20;15.20;;;;;;;;;;5029701;28;20045;-81
2023/01/16 06:44:32;;;;;;;19.08;14.70;;;;;;;;;;5030537;28;20125;-82
2023/01/16 06:46:58;;;;;;;21.13;14.40;;;;;;;;;;5028122;28;20156;-82
2023/01/16 06:49:24;;;;;;;20.38;14.38;;;;;;;;;;5029176;28;20493;-81
2023/01/16 06:51:50;;;;;;;19.42;14.38;;;;;;;;;;5043727;28;20440;-81
2023/01/16 06:54:16;;;;;;;20.27;13.40;;;;;;;;;;5027224;28;20049;-82
2023/01/16 06:56:43;;;;;;;22.60;13.75;;;;;;;;;;5018273;28;20076;-82
2023/01/16 06:59:09;;;;;;;21.17;13.30;;;;;;;;;;5052047;28;20069;-82
2023/01/16 07:01:35;;;;;;;18.67;13.13;;;;;;;;;;5015835;28;20124;-82
2023/01/16 07:04:01;;;;;;;20.75;12.80;;;;;;;;;;5020402;28;20211;-82
2023/01/16 07:06:27;;;;;;;20.80;12.60;;;;;;;;;;5021269;28;20068;-82
2023/01/16 07:08:53;;;;;;;19.58;12.55;;;;;;;;;;5023503;28;20050;-82
2023/01/16 07:11:20;;;;;;;18.45;12.00;;;;;;;;;;5051876;28;20046;-82
2023/01/16 07:13:46;;;;;;;18.52;11.80;;;;;;;;;;5022564;28;20046;-81
2023/01/16 07:24:31;;;;;;;15.38;11.27;;;;;;;;;;5021635;28;20489;-81
2023/01/16 07:26:58;;;;;;;17.92;11.55;;;;;;;;;;5019777;28;20412;-81
2023/01/16 07:29:26;;;;;;;16.67;11.80;;;;;;;;;;5018981;28;20041;-82
2023/01/16 07:31:52;;;;;;;18.88;11.90;;;;;;;;;;5019423;28;20046;-80
2023/01/16 07:34:18;;;;;;;13.43;10.10;;;;;;;;;;5019875;28;20124;-81
2023/01/16 07:36:44;;;;;;;19.75;10.23;;;;;;;;;;5020153;28;20108;-81
2023/01/16 07:39:10;;;;;;;19.75;11.07;;;;;;;;;;5022431;28;20790;-82
2023/01/16 07:41:36;;;;;;;15.85;9.80;;;;;;;;;;5021013;28;20077;-81
2023/01/16 07:44:02;;;;;;;17.40;10.27;;;;;;;;;;5022338;28;20067;-82
2023/01/16 07:46:28;;;;;;;14.52;10.75;;;;;;;;;;5027053;28;20104;-81
2023/01/16 07:48:56;;;;;;;14.98;9.02;;;;;;;;;;5030766;28;20565;-82
2023/01/16 07:51:22;;;;;;;13.73;9.02;;;;;;;;;;5011934;28;20564;-81
2023/01/16 07:53:48;;;;;;;13.25;8.68;;;;;;;;;;5031911;28;20045;-82
2023/01/16 07:56:17;;;;;;;13.88;9.23;;;;;;;;;;5012059;28;20042;-81
2023/01/16 07:58:44;;;;;;;14.05;9.02;;;;;;;;;;5023490;28;20038;-82
2023/01/16 08:01:10;;;;;;;15.02;8.80;;;;;;;;;;5045065;28;20037;-81
2023/01/16 08:03:37;;;;;;;13.43;9.10;;;;;;;;;;5035174;28;21213;-79
2023/01/16 08:06:03;;;;;;;11.90;7.95;;;;;;;;;;5022788;28;20042;-85
2023/01/16 08:08:30;;;;;;;16.05;8.70;;;;;;;;;;5029360;28;20056;-83
2023/01/16 08:10:57;;;;;;;14.32;7.97;;;;;;;;;;5028950;28;20061;-83
2023/01/16 08:13:23;;;;;;;13.18;7.85;;;;;;;;;;5028594;28;20127;-83
2023/01/16 08:15:50;;;;;;;14.38;7.65;;;;;;;;;;5030322;28;20041;-83
2023/01/16 08:18:17;;;;;;;15.75;8.18;;;;;;;;;;5018770;28;20115;-80
2023/01/16 08:20:44;;;;;;;13.52;7.90;;;;;;;;;;5031354;28;20490;-81
2023/01/16 08:23:11;;;;;;;11.23;7.55;;;;;;;;;;5019446;28;20046;-81
2023/01/16 08:25:37;;;;;;;12.73;7.32;;;;;;;;;;5025647;28;20057;-82
2023/01/16 08:28:03;;;;;;;16.52;7.80;;;;;;;;;;5011610;28;20059;-80
2023/01/16 08:30:29;;;;;;;11.82;7.50;;;;;;;;;;5026849;28;20393;-83
2023/01/16 08:32:59;;;;;;;11.73;7.28;;;;;;;;;;5027889;28;20136;-81
2023/01/16 08:35:25;;;;;;;11.85;7.53;;;;;;;;;;5017678;28;20038;-82
2023/01/16 08:37:51;;;;;;;13.82;7.43;;;;;;;;;;5056457;28;20060;-82
2023/01/16 08:40:18;;;;;;;11.35;6.97;;;;;;;;;;5023832;28;20041;-82
2023/01/16 08:53:45;;;;;;;11.27;6.50;;;;;;;;;;5020889;28;20077;-81
2023/01/16 08:56:11;;;;;;;12.45;6.45;;;;;;;;;;5018749;28;20046;-81
2023/01/16 08:58:37;;;;;;;8.90;5.65;;;;;;;;;;5019365;28;20069;-81
2023/01/16 09:01:03;;;;;;;11.10;6.10;;;;;;;;;;5023189;28;20493;-81
2023/01/16 09:03:30;;;;;;;11.35;6.30;;;;;;;;;;5017675;28;20057;-81
2023/01/16 09:05:56;;;;;;;10.35;5.60;;;;;;;;;;5026654;28;20041;-81
2023/01/16 09:08:22;;;;;;;8.38;5.38;;;;;;;;;;5017776;28;20085;-81
2023/01/16 09:13:51;;;;;;;9.52;5.38;;;;;;;;;;5022369;28;20057;-84
2023/01/16 09:16:22;;;;;;;7.80;4.45;;;;;;;;;;5021047;28;20042;-81
2023/01/16 09:18:48;;;;;;;7.00;4.80;;;;;;;;;;5019175;28;20397;-80
2023/01/16 09:21:14;;;;;;;8.75;5.63;;;;;;;;;;5017900;28;20034;-81
2023/01/16 09:23:40;;;;;;;9.75;5.20;;;;;;;;;;5025193;28;20049;-82
2023/01/16 09:26:06;;;;;;;9.73;5.30;;;;;;;;;;5019321;28;20045;-81
2023/01/16 09:28:32;;;;;;;10.80;5.15;;;;;;;;;;5021536;28;20041;-81
2023/01/16 09:30:58;;;;;;;7.85;4.55;;;;;;;;;;5021503;28;20045;-81
2023/01/16 09:33:24;;;;;;;8.40;5.03;;;;;;;;;;5021087;28;20473;-82
2023/01/16 09:35:50;;;;;;;8.57;4.80;;;;;;;;;;5024457;28;20042;-82
2023/01/16 09:38:16;;;;;;;11.98;5.70;;;;;;;;;;5021095;28;20045;-81
2023/01/16 09:40:52;;;;;;;10.07;5.63;;;;;;;;;;5020818;28;20072;-81
2023/01/16 09:43:38;;;;;;;11.48;5.78;;;;;;;;;;5018861;28;20088;-82
2023/01/16 09:46:07;;;;;;;8.65;5.80;;;;;;;;;;5025170;28;20457;-81
2023/01/16 09:48:34;;;;;;;9.82;5.72;;;;;;;;;;5016854;28;20045;-81
2023/01/16 09:51:03;;;;;;;10.13;6.10;;;;;;;;;;5024072;28;20128;-81
2023/01/16 09:59:29;;;;;;;;;;;;;;;;;;5009241;28;20059;-81
2023/01/16 10:01:59;;;;;;;11.23;6.28;;;;;;;;;;5016273;28;20292;-81
2023/01/16 10:04:27;;;;;;;10.70;7.00;;;;;;;;;;5027608;28;22140;-81
2023/01/16 10:07:12;;;;;;;11.18;6.88;;;;;;;;;;5027082;28;20525;-82
2023/01/16 10:09:41;;;;;;;13.05;7.13;;;;;;;;;;5023200;28;20080;-82
2023/01/16 10:12:11;;;;;;;12.73;7.47;;;;;;;;;;5022849;28;20140;-81
2023/01/16 10:14:56;;;;;;;10.18;6.57;;;;;;;;;;5018546;28;20504;-82
2023/01/16 10:17:36;;;;;;;9.65;6.78;;;;;;;;;;5019834;28;20057;-81
2023/01/16 10:20:08;;;;;;;11.82;6.78;;;;;;;;;;5019427;28;20034;-82
2023/01/16 10:22:46;;;;;;;9.73;6.43;;;;;;;;;;5036578;28;20042;-82
2023/01/16 10:25:19;;;;;;;14.32;7.10;;;;;;;;;;5004727;28;20053;-82
2023/01/16 10:27:53;;;;;;;10.93;6.97;;;;;;;;;;5024319;28;20045;-82
2023/01/16 10:30:26;;;;;;;15.13;6.88;;;;;;;;;;5028107;28;20492;-82
2023/01/16 10:32:57;;;;;;;8.40;6.82;;;;;;;;;;5055332;28;20164;-82
2023/01/16 10:35:26;;;;;;;10.32;6.53;;;;;;;;;;5020124;28;20389;-82
2023/01/16 10:37:53;;;;;;;6.97;6.07;;;;;;;;;;5018190;28;20046;-83
2023/01/16 10:40:22;;;;;;;8.13;6.22;;;;;;;;;;5015987;28;20121;-83
2023/01/16 10:51:07;;;;;;;6.75;5.00;;;;;;;;;;5036750;28;20443;-85
2023/01/16 10:53:33;;;;;;;5.97;4.88;;;;;;;;;;5041129;28;20064;-82
2023/01/16 10:55:59;;;;;;;7.53;5.65;;;;;;;;;;5030657;28;20052;-78
2023/01/16 10:58:29;;;;;;;6.88;4.72;;;;;;;;;;5032560;28;20049;-82
2023/01/16 11:01:16;;;;;;;5.70;4.20;;;;;;;;;;5029959;28;20072;-81
2023/01/16 11:03:43;;;;;;;5.05;4.10;;;;;;;;;;5025522;28;20468;-82
2023/01/16 11:06:12;;;;;;;4.25;3.75;;;;;;;;;;5023075;28;20046;-82
2023/01/16 11:08:39;;;;;;;4.05;3.28;;;;;;;;;;5030425;28;20107;-82
2023/01/16 11:18:27;;;;;;;4.30;3.25;;;;;;;;;;5023009;28;20048;-82
2023/01/16 11:19:23;;;;;;;4.38;3.28;;;;;;;;;;5027727;28;20465;-82
2023/01/16 11:22:07;;;;;;;4.78;3.30;;;;;;;;;;5022616;28;20397;-82
2023/01/16 11:24:33;;;;;;;;;;;;;;;;;;5035313;28;20386;-82
2023/01/16 11:27:00;;;;;;;4.20;3.30;;;;;;;;;;5024290;28;20028;-82
2023/01/16 11:29:35;;;;;;;4.35;3.20;;;;;;;;;;5020378;28;20053;-83
2023/01/16 11:32:04;;;;;;;3.90;3.50;;;;;;;;;;5028999;28;20491;-82
2023/01/16 11:34:30;;;;;;;4.18;3.40;;;;;;;;;;5016887;28;20057;-83
2023/01/16 11:37:04;;;;;;;4.72;3.47;;;;;;;;;;5023709;28;20042;-82
2023/01/16 11:39:32;;;;;;;3.80;3.50;;;;;;;;;;5022148;28;20524;-82
2023/01/16 11:41:58;;;;;;;3.40;3.10;;;;;;;;;;5029560;28;20045;-82
2023/01/16 11:47:15;;;;;;;2.95;2.75;;;;;;;;;;5025390;28;20033;-82
2023/01/16 11:49:48;;;;;;;3.72;2.85;;;;;;;;;;5029214;28;20468;-81
2023/01/16 11:52:26;;;;;;;4.10;2.58;;;;;;;;;;5016414;28;20042;-82
2023/01/16 11:55:03;;;;;;;3.10;2.90;;;;;;;;;;5044034;28;20088;-82
2023/01/16 11:57:37;;;;;;;3.05;2.80;;;;;;;;;;5027027;28;20228;-82
2023/01/16 12:00:23;;;;;;;3.00;2.80;;;;;;;;;;5026753;28;20116;-82
2023/01/16 12:02:55;;;;;;;2.70;2.50;;;;;;;;;;5020921;28;20052;-83
2023/01/16 12:05:53;;;;;;;2.80;2.60;;;;;;;;;;5032241;28;20042;-83
2023/01/16 12:08:33;;;;;;;2.95;2.72;;;;;;;;;;5007077;28;20053;-83
2023/01/16 12:11:05;;;;;;;2.70;2.50;;;;;;;;;;5023821;28;20405;-83
2023/01/16 12:16:42;;;;;;;2.80;2.60;;;;;;;;;;5026140;28;20050;-83
2023/01/16 12:19:27;;;;;;;3.42;2.78;;;;;;;;;;5023788;28;20057;-83
2023/01/16 12:22:02;;;;;;;3.03;2.83;;;;;;;;;;5019115;28;20060;-82
2023/01/16 12:24:36;;;;;;;2.90;2.70;;;;;;;;;;5023102;28;20060;-83
2023/01/16 12:27:28;;;;;;;2.80;2.60;;;;;;;;;;5025698;28;20042;-83
2023/01/16 12:29:54;;;;;;;3.40;3.10;;;;;;;;;;5020426;28;20144;-82
2023/01/16 12:32:35;;;;;;;3.38;3.08;;;;;;;;;;5028857;28;20132;-83
2023/01/16 12:35:23;;;;;;;3.60;3.30;;;;;;;;;;5026613;28;20080;-83
2023/01/16 12:37:53;;;;;;;3.40;3.20;;;;;;;;;;5021473;28;20085;-83
2023/01/16 12:40:25;;;;;;;4.88;3.42;;;;;;;;;;5029117;28;20081;-83
2023/01/16 12:46:06;;;;;;;4.07;3.67;;;;;;;;;;5033084;28;20041;-83
2023/01/16 12:48:51;;;;;;;3.72;3.40;;;;;;;;;;5025225;28;20127;-82
2023/01/16 12:51:20;;;;;;;4.00;3.70;;;;;;;;;;5030585;28;20037;-82
2023/01/16 12:54:09;;;;;;;3.92;3.63;;;;;;;;;;5028360;28;20056;-82
2023/01/16 12:57:07;;;;;;;3.85;3.55;;;;;;;;;;5031578;28;20037;-82
2023/01/16 12:59:34;;;;;;;3.92;3.60;;;;;;;;;;4999407;28;20104;-82
2023/01/16 13:02:11;;;;;;;4.53;3.85;;;;;;;;;;5026602;28;20046;-82
2023/01/16 13:04:57;;;;;;;4.35;3.95;;;;;;;;;;5025149;28;20045;-82
2023/01/16 13:07:24;;;;;;;4.35;3.88;;;;;;;;;;5021110;28;20049;-83
2023/01/16 13:09:50;;;;;;;4.30;3.90;;;;;;;;;;5036673;28;20056;-82
2023/01/16 13:15:18;;;;;;;4.25;3.85;;;;;;;;;;5022439;28;20064;-82
2023/01/16 13:17:46;;;;;;;5.32;4.82;;;;;;;;;;5027085;28;20088;-82
2023/01/16 13:20:13;;;;;;;5.28;4.45;;;;;;;;;;5030431;28;20073;-82
2023/01/16 13:22:44;;;;;;;4.95;4.25;;;;;;;;;;5026654;28;20051;-83
2023/01/16 13:25:18;;;;;;;4.90;4.15;;;;;;;;;;5030804;28;20048;-83
2023/01/16 13:27:47;;;;;;;4.55;4.15;;;;;;;;;;5025745;28;20099;-82
2023/01/16 13:30:14;;;;;;;4.60;4.20;;;;;;;;;;5029331;28;20053;-83
2023/01/16 13:32:42;;;;;;;11.85;10.70;;;;;;;;;;5026211;28;20061;-83
2023/01/16 13:35:20;;;;;;;5.18;4.68;;;;;;;;;;5033379;28;20043;-83
2023/01/16 13:37:56;;;;;;;4.75;4.20;;;;;;;;;;5024013;28;20050;-83
2023/01/16 13:40:40;;;;;;;5.63;4.65;;;;;;;;;;5031056;28;20481;-82
2023/01/16 13:46:01;;;;;;;6.47;5.10;;;;;;;;;;5030836;28;20038;-82
2023/01/16 13:48:37;;;;;;;5.93;4.93;;;;;;;;;;5034320;28;20370;-82
2023/01/16 13:51:07;;;;;;;6.28;5.20;;;;;;;;;;5026257;28;20053;-82
2023/01/16 13:53:36;;;;;;;6.60;5.05;;;;;;;;;;5029059;28;20392;-87
2023/01/16 13:56:15;;;;;;;6.18;5.18;;;;;;;;;;5031101;28;20055;-82
2023/01/16 13:58:43;;;;;;;5.80;5.20;;;;;;;;;;5030940;28;20091;-84
2023/01/16 14:01:28;;;;;;;6.13;5.53;;;;;;;;;;5018943;28;20103;-84
2023/01/16 14:04:27;;;;;;;6.53;5.35;;;;;;;;;;5027217;28;20484;-83
2023/01/16 14:10:06;;;;;;;4.32;3.92;;;;;;;;;;5012182;28;20073;-84
2023/01/16 14:12:42;;;;;;;3.20;2.90;;;;;;;;;;5025333;28;20030;-84
2023/01/16 14:17:58;;;;;;;3.05;2.70;;;;;;;;;;5028084;28;20073;-85
2023/01/16 14:20:37;;;;;;;3.50;2.70;;;;;;;;;;5041219;28;20500;-83
2023/01/16 14:25:54;;;;;;;2.25;2.10;;;;;;;;;;5028762;28;20053;-85
2023/01/16 14:28:20;;;;;;;2.00;1.90;;;;;;;;;;5019047;28;20099;-81
2023/01/16 14:30:46;;;;;;;2.13;1.92;;;;;;;;;;5030597;28;20073;-85
2023/01/16 14:33:16;;;;;;;2.22;2.03;;;;;;;;;;5031987;28;20124;-85
2023/01/16 14:35:44;;;;;;;2.03;1.92;;;;;;;;;;5028270;28;20041;-83
2023/01/16 14:38:14;;;;;;;2.17;2.00;;;;;;;;;;5026196;28;20045;-84
2023/01/16 14:55:14;;;;;;;3.08;2.53;;;;;;;;;;5016996;28;20042;-85
2023/01/16 14:57:40;;;;;;;2.40;2.20;;;;;;;;;;5028375;28;20124;-85
2023/01/16 15:00:14;;;;;;;2.15;2.00;;;;;;;;;;5028132;28;20515;-86
2023/01/16 15:02:43;;;;;;;2.85;2.38;;;;;;;;;;5052609;28;20462;-84
2023/01/16 15:05:49;;;;;;;2.50;2.30;;;;;;;;;;5023622;28;20112;-84
2023/01/16 15:08:16;;;;;;;2.42;2.22;;;;;;;;;;5027638;28;20208;-84
2023/01/16 15:10:43;;;;;;;2.10;2.00;;;;;;;;;;5029584;28;20040;-84
2023/01/16 15:13:17;;;;;;;2.40;2.20;;;;;;;;;;5024422;28;20057;-83
2023/01/16 15:15:44;;;;;;;2.70;2.50;;;;;;;;;;5023999;28;20033;-80
2023/01/16 15:23:43;;;;;;;3.03;2.72;;;;;;;;;;5018603;28;20076;-80
2023/01/16 15:26:21;;;;;;;3.45;2.65;;;;;;;;;;5020743;28;20100;-81
2023/01/16 15:28:53;;;;;;;3.55;2.80;;;;;;;;;;5021540;28;20037;-80
2023/01/16 15:31:22;;;;;;;2.90;2.67;;;;;;;;;;5008639;28;20102;-81
2023/01/16 15:33:59;;;;;;;3.47;3.00;;;;;;;;;;5020723;28;20048;-81
2023/01/16 15:36:26;;;;;;;3.67;3.38;;;;;;;;;;5018555;28;20045;-81
2023/01/16 15:39:22;;;;;;;3.47;3.15;;;;;;;;;;5022382;28;20069;-81
2023/01/16 15:47:57;;;;;;;3.72;3.42;;;;;;;;;;5023769;28;20041;-81
2023/01/16 15:50:26;;;;;;;4.85;4.00;;;;;;;;;;5018002;28;20042;-82
2023/01/16 15:52:52;;;;;;;3.10;1.98;;;;;;;;;;5021339;28;20076;-80
2023/01/16 15:55:20;;;;;;;1.90;1.80;;;;;;;;;;5026214;28;20128;-80
2023/01/16 15:57:48;;;;;;;2.10;1.60;;;;;;;;;;5034656;28;20041;-80
2023/01/16 16:00:27;;;;;;;2.08;1.48;;;;;;;;;;5017001;28;20437;-80
2023/01/16 16:03:00;;;;;;;2.65;1.45;;;;;;;;;;5019392;28;20052;-78
2023/01/16 16:05:27;;;;;;;1.70;1.60;;;;;;;;;;5025744;28;20077;-81
2023/01/16 16:07:54;;;;;;;1.70;1.52;;;;;;;;;;5026351;28;20723;-81
2023/01/16 16:13:05;;;;;;;4.32;2.42;;;;;;;;;;5025515;28;20225;-80
2023/01/16 16:18:18;;;;;;;2.70;1.77;;;;;;;;;;5020100;28;20053;-81
2023/01/16 16:20:45;;;;;;;1.95;1.65;;;;;;;;;;5039194;28;20085;-81
2023/01/16 16:23:14;;;;;;;1.58;1.45;;;;;;;;;;5021055;28;20076;-81
2023/01/16 16:25:52;;;;;;;2.08;1.50;;;;;;;;;;5023384;28;20038;-81